Latest Weather Observations for Mount Isa

IDQ60801

Issued at 11:02 am EST Tuesday 21 February 2017 (issued every 30 minutes, with the page automatically refreshed every 10 minutes)

About weather observations | Map of weather stations | Latest weather observations for QLD | Other Formats
Station Details ID: 029127 Name: MOUNT ISA AERO Lat: -20.68 Lon: 139.49 Height: 340.3 m
Data from the previous 72 hours. | See also: Recent months at Mount Isa
Date/Time
EST
Temp
°C
App
Temp
°C
Dew
Point
°C
Rel
Hum
%
Delta-T
°C
Wind Press
QNH
hPa
Press
MSL
hPa
Rain since
9am
mm
Dir  Spd
km/h
Gust
km/h
Spd
kts
Gust
kts
21/10:30am 26.9 25.9 15.6 50 7.0 E 15 19 8 10 1014.4 1011.9 0.0
21/10:00am 26.4 24.8 16.1 53 6.4 ESE 19 26 10 14 1014.2 1011.7 0.0
21/09:30am 26.0 24.7 15.7 53 6.4 E 17 24 9 13 1014.3 1011.8 0.0
21/09:00am 25.4 24.2 16.0 56 5.8 E 17 26 9 14 1013.8 1011.3 0.0
21/08:30am 25.0 24.7 16.4 59 5.3 E 13 20 7 11 1013.6 1011.1 0.0
21/08:00am 24.3 24.4 16.6 62 4.8 E 11 15 6 8 1013.1 1010.5 0.0
21/07:30am 23.3 24.0 17.1 68 3.9 ENE 9 13 5 7 1012.8 1010.2 0.0
21/07:00am 21.9 24.3 17.1 74 3.0 CALM 0 0 0 0 1012.7 1010.1 0.0
21/06:30am 22.2 24.5 16.7 71 3.4 CALM 0 0 0 0 1012.3 1009.7 0.0
21/06:00am 22.6 22.6 16.2 67 3.9 NE 11 17 6 9 1012.0 1009.4 0.0
21/05:30am 23.2 22.7 16.0 64 4.4 E 13 19 7 10 1011.8 1009.2 0.0
21/05:00am 23.6 23.2 16.1 62 4.6 ESE 13 17 7 9 1011.6 1009.0 0.0
21/04:30am 23.4 23.3 16.0 63 4.5 ESE 11 17 6 9 1011.6 1009.0 0.0
21/04:00am 23.7 23.7 16.2 63 4.6 ESE 11 15 6 8 1011.2 1008.7 0.0
21/03:30am 23.9 23.2 16.4 63 4.6 E 15 20 8 11 1011.4 1008.9 0.0
21/03:00am 24.1 23.7 16.1 61 4.9 ESE 13 17 7 9 1011.7 1009.1 0.0
21/02:30am 24.4 23.2 16.1 60 5.1 E 17 26 9 14 1011.9 1009.3 0.0
21/02:00am 24.3 23.8 15.8 59 5.2 E 13 19 7 10 1012.2 1009.6 0.0
21/01:30am 24.6 23.6 15.5 57 5.6 E 15 19 8 10 1012.5 1009.9 0.0
21/01:00am 23.9 23.3 15.7 60 5.0 ENE 13 17 7 9 1013.0 1010.4 0.0
21/12:30am 23.6 22.4 15.1 59 5.2 NE 15 19 8 10 1013.0 1010.4 0.0
21/12:00am 24.0 23.7 14.4 55 5.8 ENE 9 13 5 7 1013.0 1010.4 0.0
 
Date/Time
EST
Temp
°C
App
Temp
°C
Dew
Point
°C
Rel
Hum
%
Delta-T
°C
Wind Press
QNH
hPa
Press
MSL
hPa
Rain since
9am
mm
Dir  Spd
km/h
Gust
km/h
Spd
kts
Gust
kts
20/11:30pm 24.5 23.0 14.3 53 6.1 NE 15 20 8 11 1013.2 1010.6 0.0
20/11:00pm 24.8 23.5 13.7 50 6.6 ESE 13 15 7 8 1013.0 1010.4 0.0
20/10:30pm 24.3 22.9 13.5 51 6.4 NE 13 15 7 8 1012.8 1010.2 0.0
20/10:00pm 25.0 23.6 12.2 44 7.4 ENE 11 15 6 8 1012.7 1010.1 0.0
20/09:30pm 25.4 23.9 11.9 43 7.8 NE 11 15 6 8 1012.3 1009.7 0.0
20/09:00pm 26.0 25.1 11.4 40 8.4 NE 7 11 4 6 1012.1 1009.5 0.0
20/08:30pm 26.6 25.6 11.1 38 8.9 NE 7 9 4 5 1011.6 1009.0 0.0
20/08:00pm 27.1 25.9 10.3 35 9.6 NNE 7 11 4 6 1011.1 1008.6 0.0
20/07:30pm 27.4 25.4 10.2 34 9.8 ENE 11 13 6 7 1010.7 1008.2 0.0
20/07:00pm 28.3 26.5 9.6 31 10.6 NE 9 13 5 7 1010.9 1008.4 0.0
20/06:30pm 29.2 26.2 9.3 29 11.2 NE 15 22 8 12 1010.7 1008.2 0.0
20/06:00pm 30.0 26.6 9.0 27 11.9 NE 17 24 9 13 1010.1 1007.5 0.0
20/05:30pm 30.6 27.7 8.3 25 12.5 NNE 13 19 7 10 1009.9 1007.3 0.0
20/05:00pm 31.4 27.9 7.1 22 13.4 E 15 19 8 10 1009.8 1007.2 0.0
20/04:30pm 31.9 28.7 6.9 21 13.8 E 13 19 7 10 1009.7 1007.1 0.0
20/04:00pm 31.7 29.2 8.0 23 13.3 ENE 11 15 6 8 1010.0 1007.4 0.0
20/03:30pm 31.6 27.4 5.9 20 13.9 ENE 17 24 9 13 1010.1 1007.5 0.0
20/03:00pm 32.0 27.8 5.5 19 14.3 ESE 17 22 9 12 1010.1 1007.5 0.0
20/02:30pm 32.3 27.7 5.7 19 14.4 SE 19 28 10 15 1010.2 1007.6 0.0
20/02:00pm 32.0 27.9 6.2 20 14.1 SE 17 28 9 15 1010.5 1007.9 0.0
20/01:30pm 32.3 27.9 6.5 20 14.1 E 19 30 10 16 1011.0 1008.5 0.0
20/01:00pm 31.9 27.4 6.9 21 13.8 SE 20 30 11 16 1011.2 1008.7 0.0
20/12:30pm 30.8 26.6 7.3 23 13.0 ESE 19 28 10 15 1011.9 1009.3 0.0
20/12:00pm 29.8 25.0 5.8 22 12.8 ESE 20 30 11 16 1012.4 1009.8 0.0
20/11:30am 29.9 25.6 5.2 21 13.1 ESE 17 26 9 14 1012.7 1010.1 0.0
20/11:00am 29.1 23.7 4.6 21 12.8 ESE 22 32 12 17 1012.7 1010.1 0.0
20/10:30am 28.1 22.8 5.0 23 12.1 SE 22 32 12 17 1012.9 1010.3 0.0
20/10:00am 27.0 21.0 3.5 22 11.9 SE 24 33 13 18 1013.1 1010.5 0.0
20/09:30am 26.5 21.6 4.9 25 11.2 SE 20 32 11 17 1013.1 1010.5 0.0
20/09:00am 25.3 19.8 3.9 25 10.8 SE 22 30 12 16 1013.1 1010.5 0.0
20/08:30am 24.7 18.4 3.9 26 10.4 SE 26 33 14 18 1012.8 1010.2 0.0
20/08:00am 23.8 18.8 3.7 27 10.0 SSE 19 30 10 16 1012.9 1010.3 0.0
20/07:30am 22.8 18.7 4.3 30 9.2 SSE 15 20 8 11 1012.6 1010.0 0.0
20/07:00am 22.5 18.3 3.6 29 9.3 SSE 15 24 8 13 1012.2 1009.6 0.0
20/06:30am 22.9 17.8 2.9 27 9.7 SSE 19 26 10 14 1012.0 1009.4 0.0
20/06:00am 22.7 17.5 3.8 29 9.3 SSE 20 28 11 15 1011.8 1009.2 0.0
20/05:30am 22.9 18.3 3.9 29 9.4 SSE 17 26 9 14 1011.2 1008.7 0.0
20/05:00am 23.4 18.7 3.4 27 9.9 SSE 17 26 9 14 1010.8 1008.3 0.0
20/04:30am 23.8 18.6 3.7 27 10.0 SSE 20 28 11 15 1010.7 1008.2 0.0
20/04:00am 24.0 19.4 3.9 27 10.1 SSE 17 24 9 13 1010.7 1008.2 0.0
20/03:30am 24.4 19.3 4.2 27 10.2 SSE 20 26 11 14 1010.6 1008.0 0.0
20/03:00am 24.9 20.5 4.6 27 10.3 SSE 17 26 9 14 1010.6 1008.0 0.0
20/02:30am 24.8 21.0 5.6 29 9.9 SSE 15 20 8 11 1010.8 1008.3 0.0
20/02:00am 25.2 21.4 5.9 29 10.1 SSE 15 20 8 11 1010.9 1008.4 0.0
20/01:30am 25.5 22.3 6.7 30 10.0 SSE 13 19 7 10 1011.1 1008.6 0.0
20/01:00am 25.1 22.6 9.8 38 8.6 SSE 13 17 7 9 1011.2 1008.7 0.0
20/12:30am 21.2 21.6 16.2 73 3.1 S 9 11 5 6 1011.6 1009.0 0.0
20/12:00am 21.8 22.1 16.1 70 3.5 SSE 9 11 5 6 1011.6 1009.0 0.0
 
Date/Time
EST
Temp
°C
App
Temp
°C
Dew
Point
°C
Rel
Hum
%
Delta-T
°C
Wind Press
QNH
hPa
Press
MSL
hPa
Rain since
9am
mm
Dir  Spd
km/h
Gust
km/h
Spd
kts
Gust
kts
19/11:30pm 22.4 23.5 15.7 66 4.1 SSE 4 9 2 5 1011.7 1009.1 0.0
19/11:00pm 24.0 24.0 15.2 58 5.4 SSE 9 13 5 7 1011.8 1009.2 0.0
19/10:30pm 25.2 25.2 14.3 50 6.6 SE 7 9 4 5 1011.9 1009.3 0.0
19/10:00pm 27.2 25.3 9.1 32 10.1 SE 9 11 5 6 1011.7 1009.1 0.0
19/09:30pm 27.9 25.0 8.2 29 10.9 S 13 17 7 9 1011.2 1008.7 0.0
19/09:00pm 28.3 25.0 8.1 28 11.2 S 15 19 8 10 1010.9 1008.4 0.0
19/08:30pm 28.5 25.1 9.2 30 10.9 SSE 17 24 9 13 1010.7 1008.2 0.0
19/08:00pm 29.0 27.3 9.7 30 11.0 SSE 9 11 5 6 1010.4 1007.8 0.0
19/07:30pm 27.4 28.2 16.4 51 6.9 SW 7 11 4 6 1010.2 1007.6 0.0
19/07:00pm 29.1 28.8 13.3 37 9.5 NNE 7 9 4 5 1009.8 1007.2 0.0
19/06:30pm 30.3 29.4 11.3 31 11.1 NE 7 11 4 6 1009.5 1006.9 0.0
19/06:00pm 31.1 28.8 10.4 28 12.0 E 13 19 7 10 1009.5 1006.9 0.0
19/05:30pm 31.7 28.7 9.3 25 12.8 ESE 15 20 8 11 1009.4 1006.8 0.0
19/05:00pm 31.9 29.2 8.8 24 13.1 ESE 13 19 7 10 1009.2 1006.6 0.0
19/04:30pm 32.7 29.8 8.2 22 13.8 ESE 13 19 7 10 1009.3 1006.7 0.0
19/04:00pm 32.6 30.0 10.6 26 12.9 SE 15 19 8 10 1009.5 1006.9 0.0
19/03:30pm 31.9 29.0 8.2 23 13.3 ESE 13 22 7 12 1009.7 1007.1 0.0
19/03:00pm 32.0 29.1 9.5 25 12.9 ESE 15 24 8 13 1009.8 1007.2 0.0
19/02:30pm 32.2 28.7 10.3 26 12.7 SE 19 32 10 17 1009.7 1007.1 0.0
19/02:00pm 31.8 28.0 9.9 26 12.7 SE 20 33 11 18 1010.1 1007.5 0.0
19/01:30pm 31.2 27.9 9.4 26 12.5 SE 17 26 9 14 1010.6 1008.0 0.0
19/01:00pm 30.8 26.7 10.2 28 11.9 SE 22 32 12 17 1011.1 1008.6 0.0
19/12:30pm 30.6 27.1 8.9 26 12.3 SE 17 28 9 15 1011.7 1009.1 0.0
19/12:00pm 30.3 26.1 9.8 28 11.7 SE 22 32 12 17 1012.1 1009.5 0.0
19/11:30am 29.2 24.8 8.8 28 11.4 SE 22 32 12 17 1012.4 1009.8 0.0
19/11:00am 28.4 24.4 9.2 30 10.8 SSE 20 28 11 15 1012.9 1010.3 0.0
19/10:30am 27.5 24.7 11.5 37 9.3 SSE 17 24 9 13 1013.3 1010.7 0.0
19/10:00am 26.4 22.9 12.1 41 8.4 SSE 22 30 12 16 1013.4 1010.9 0.0
19/09:30am 25.6 24.3 17.3 60 5.2 SSE 20 30 11 16 1013.4 1010.9 0.0
19/09:00am 24.0 26.6 21.9 88 1.4 SSE 11 17 6 9 1013.1 1010.5 22.4
19/08:30am 22.7 24.7 22.2 97 0.3 S 15 17 8 9 1013.0 1010.4 22.4
19/08:16am 22.3 24.9 22.0 98 0.2 S 11 17 6 9 1013.0 1010.4 22.4
19/08:00am 22.0 24.6 22.0 100 0.0 SSW 11 13 6 7 1012.7 1010.1 22.4
19/07:58am 22.0 24.5 21.8 99 0.1 SSW 11 13 6 7 1012.7 1010.1 22.4
19/07:30am 21.4 25.4 21.4 100 0.0 SE 2 9 1 5 1012.6 1010.0 22.4
19/07:00am 21.2 24.2 21.2 100 0.0 ENE 7 9 4 5 1012.4 1009.8 22.4
19/06:57am 21.2 24.2 21.2 100 0.0 ENE 7 9 4 5 1012.4 1009.8 22.4
19/06:30am 21.1 23.6 21.1 100 0.0 NNE 9 13 5 7 1012.3 1009.7 22.4
19/06:22am 21.1 23.3 21.1 100 0.0 NNE 11 13 6 7 1012.4 1009.8 22.4
19/06:00am 20.9 22.2 20.9 100 0.0 NNE 15 19 8 10 1012.3 1009.7 22.4
19/05:30am 21.0 21.4 21.0 100 0.0 ENE 20 28 11 15 1012.1 1009.5 21.6
19/05:09am 20.9 23.0 20.9 100 0.0 NNW 11 15 6 8 1011.2 1008.7 21.2
19/05:00am 20.8 23.2 20.8 100 0.0 WNW 9 13 5 7 1011.6 1009.0 21.0
19/04:44am 20.9 23.3 20.9 100 0.0 SW 9 15 5 8 1012.0 1009.4 19.2
19/04:30am 21.0 22.0 21.0 100 0.0 S 17 32 9 17 1011.8 1009.2 14.4
19/04:14am 22.7 24.7 21.5 93 0.8 ENE 13 28 7 15 1011.6 1009.0 1.8
19/04:00am 24.1 27.4 23.2 95 0.6 NNW 11 13 6 7 1011.0 1008.5 0.4
19/03:30am 23.9 28.5 23.2 96 0.5 ENE 4 7 2 4 1011.0 1008.5 0.4
19/03:15am 23.8 27.8 23.1 96 0.5 ESE 7 9 4 5 1011.2 1008.7 0.4
19/03:00am 23.5 27.1 23.0 97 0.3 SSE 9 11 5 6 1011.2 1008.7 0.4
19/02:30am 23.1 26.7 22.4 96 0.5 NE 7 9 4 5 1011.1 1008.6 0.4
19/02:00am 23.0 27.9 22.3 96 0.5 CALM 0 0 0 0 1010.8 1008.3 0.4
19/01:30am 22.9 26.6 22.2 96 0.5 N 6 7 3 4 1011.1 1008.6 0.4
19/01:00am 22.6 26.8 21.8 95 0.5 E 2 6 1 3 1011.1 1008.6 0.4
19/12:30am 22.4 25.0 21.2 93 0.8 ESE 9 11 5 6 1011.4 1008.9 0.4
19/12:00am 22.3 24.3 21.5 95 0.5 N 13 17 7 9 1012.0 1009.4 0.2
 
Date/Time
EST
Temp
°C
App
Temp
°C
Dew
Point
°C
Rel
Hum
%
Delta-T
°C
Wind Press
QNH
hPa
Press
MSL
hPa
Rain since
9am
mm
Dir  Spd
km/h
Gust
km/h
Spd
kts
Gust
kts
18/11:30pm 22.4 23.1 20.5 89 1.2 NNE 17 26 9 14 1012.5 1009.9 0.0
18/11:00pm 23.3 22.9 20.1 82 2.1 N 22 35 12 19 1012.7 1010.1 0.0
18/10:30pm 25.1 25.1 19.7 72 3.5 NNE 19 28 10 15 1012.8 1010.2 0.0
18/10:00pm 27.4 26.8 18.9 59 5.5 E 20 32 11 17 1012.4 1009.8 0.0
18/09:30pm 29.2 31.4 19.5 56 6.4 ESE 7 9 4 5 1012.0 1009.4 0.0
18/09:00pm 29.5 31.3 19.5 55 6.6 ESE 9 19 5 10 1011.6 1009.0 0.0
18/08:30pm 29.7 32.1 20.0 56 6.5 NE 7 11 4 6 1011.2 1008.7 0.0
18/08:00pm 29.9 31.9 19.9 55 6.7 NNE 9 13 5 7 1010.8 1008.3 0.0
18/07:30pm 30.2 31.5 20.2 55 6.7 NNE 13 17 7 9 1010.5 1007.9 0.0
18/07:00pm 30.8 32.6 19.5 51 7.5 NNE 9 13 5 7 1010.2 1007.6 0.0
18/06:30pm 31.1 32.3 19.1 48 7.9 NNE 11 13 6 7 1009.9 1007.3 0.0
18/06:00pm 31.3 32.4 19.6 49 7.8 NE 13 15 7 8 1009.8 1007.2 0.0
18/05:30pm 31.7 33.2 19.7 49 8.0 NNE 11 15 6 8 1009.5 1006.9 0.0
18/05:00pm 31.8 33.3 19.8 49 8.0 NNE 11 19 6 10 1009.6 1007.0 0.0
18/04:30pm 32.2 33.4 19.8 48 8.3 ENE 13 19 7 10 1009.6 1007.0 0.0
18/04:00pm 32.2 33.8 19.1 45 8.7 NNE 9 19 5 10 1009.8 1007.2 0.0
18/03:30pm 32.2 33.1 18.4 44 9.0 NE 11 17 6 9 1010.1 1007.5 0.0
18/03:00pm 32.1 33.8 19.4 47 8.4 NNE 9 17 5 9 1010.5 1007.9 0.0
18/02:30pm 31.0 31.7 19.7 51 7.5 NE 15 24 8 13 1011.0 1008.5 0.0
18/02:00pm 31.4 31.6 19.4 49 8.0 NE 17 26 9 14 1011.7 1009.1 0.0
18/01:30pm 31.7 32.1 19.0 47 8.4 NE 15 26 8 14 1012.0 1009.4 0.0
18/01:00pm 30.6 31.9 19.3 51 7.5 NNW 11 19 6 10 1012.7 1010.1 0.0
18/12:30pm 30.6 32.7 20.2 53 7.0 E 9 17 5 9 1013.0 1010.4 0.0
18/12:00pm 30.1 32.3 20.4 56 6.5 E 9 13 5 7 1013.5 1011.0 0.0
18/11:30am 29.8 31.5 20.1 56 6.5 NE 11 19 6 10 1013.8 1011.3 0.0

Other Formats:

Comma delimited format used in spreadsheet applications
http://www.bom.gov.au/fwo/IDQ60801/IDQ60801.94332.axf

JavaScript Object Notation format (JSON) in row-major order
http://www.bom.gov.au/fwo/IDQ60801/IDQ60801.94332.json